Terminal Aerodrome Forecast
Issued by NWS

Current Version | Previous Version | Graphics & Text | Print | Product List | Glossary On
Versions: 1 2 3 4 5 6 7 8 9 10 11 12 13 14 15 16 17 18 19 20 21 22 23 24 25
311
FTUS41 KPBZ 162326
TAFMGW
TAF
KMGW 162326Z 1700/1724 14003KT 5SM -SHRA OVC020
     FM170100 16003KT P6SM OVC035
     FM170700 16004KT 2SM -RA OVC008
     FM171300 18006KT 3SM -SHRA OVC010
     FM172100 21010G23KT 6SM -SHRA BKN015=

USA.gov is the U.S. government's official web portal to all federal, state and local government web resources and services.